sensor_id;sensor_type;location;lat;lon;timestamp;pressure;altitude;pressure_sealevel;temperature;humidity
11114;BME280;5610;52.154;9.198;2023-04-01T00:01:29;98618.53;;;10.73;100.00
11114;BME280;5610;52.154;9.198;2023-04-01T00:04:14;98613.84;;;10.85;100.00
11114;BME280;5610;52.154;9.198;2023-04-01T00:07:00;98611.31;;;10.93;100.00
11114;BME280;5610;52.154;9.198;2023-04-01T00:09:46;98616.94;;;10.90;100.00
11114;BME280;5610;52.154;9.198;2023-04-01T00:12:31;98621.03;;;10.75;100.00
11114;BME280;5610;52.154;9.198;2023-04-01T00:15:18;98623.81;;;10.83;100.00
11114;BME280;5610;52.154;9.198;2023-04-01T00:18:03;98627.06;;;10.86;100.00
11114;BME280;5610;52.154;9.198;2023-04-01T00:20:51;98621.00;;;10.84;100.00
11114;BME280;5610;52.154;9.198;2023-04-01T00:23:36;98616.88;;;10.62;100.00
11114;BME280;5610;52.154;9.198;2023-04-01T00:26:22;98607.47;;;10.68;100.00
11114;BME280;5610;52.154;9.198;2023-04-01T00:29:08;98614.91;;;10.64;100.00
11114;BME280;5610;52.154;9.198;2023-04-01T00:31:55;98624.59;;;10.65;100.00
11114;BME280;5610;52.154;9.198;2023-04-01T00:34:41;98613.78;;;10.67;100.00
11114;BME280;5610;52.154;9.198;2023-04-01T00:37:26;98614.31;;;10.70;100.00
11114;BME280;5610;52.154;9.198;2023-04-01T00:40:24;98615.97;;;10.81;100.00
11114;BME280;5610;52.154;9.198;2023-04-01T00:43:12;98613.38;;;10.71;100.00
11114;BME280;5610;52.154;9.198;2023-04-01T00:45:58;98607.72;;;10.75;100.00
11114;BME280;5610;52.154;9.198;2023-04-01T00:48:47;98614.47;;;10.79;100.00
11114;BME280;5610;52.154;9.198;2023-04-01T00:51:33;98614.31;;;10.80;100.00
11114;BME280;5610;52.154;9.198;2023-04-01T00:54:20;98618.38;;;10.75;100.00
11114;BME280;5610;52.154;9.198;2023-04-01T00:57:10;98609.94;;;10.89;100.00
11114;BME280;5610;52.154;9.198;2023-04-01T00:59:57;98621.00;;;10.94;100.00
11114;BME280;5610;52.154;9.198;2023-04-01T01:02:45;98615.75;;;11.02;100.00
11114;BME280;5610;52.154;9.198;2023-04-01T01:05:38;98616.25;;;10.88;100.00
11114;BME280;5610;52.154;9.198;2023-04-01T01:08:40;98620.69;;;10.97;100.00
11114;BME280;5610;52.154;9.198;2023-04-01T01:11:35;98615.88;;;11.10;100.00
11114;BME280;5610;52.154;9.198;2023-04-01T01:14:33;98607.94;;;11.00;100.00
11114;BME280;5610;52.154;9.198;2023-04-01T01:17:28;98607.28;;;11.16;100.00
11114;BME280;5610;52.154;9.198;2023-04-01T01:24:10;98601.13;;;11.16;100.00
11114;BME280;5610;52.154;9.198;2023-04-01T01:27:03;98606.28;;;11.17;100.00
11114;BME280;5610;52.154;9.198;2023-04-01T01:30:09;98605.59;;;11.15;100.00
11114;BME280;5610;52.154;9.198;2023-04-01T01:33:13;98603.28;;;11.03;100.00
11114;BME280;5610;52.154;9.198;2023-04-01T01:36:06;98608.00;;;10.81;100.00
11114;BME280;5610;52.154;9.198;2023-04-01T01:38:54;98609.09;;;10.88;100.00
11114;BME280;5610;52.154;9.198;2023-04-01T01:41:42;98604.81;;;11.05;100.00
11114;BME280;5610;52.154;9.198;2023-04-01T01:44:29;98602.97;;;11.06;100.00
11114;BME280;5610;52.154;9.198;2023-04-01T01:47:16;98602.59;;;11.00;100.00
11114;BME280;5610;52.154;9.198;2023-04-01T01:50:05;98602.72;;;10.99;100.00
11114;BME280;5610;52.154;9.198;2023-04-01T01:53:01;98602.84;;;11.07;100.00
11114;BME280;5610;52.154;9.198;2023-04-01T01:55:47;98604.69;;;10.97;100.00
11114;BME280;5610;52.154;9.198;2023-04-01T01:58:35;98600.00;;;10.81;100.00
11114;BME280;5610;52.154;9.198;2023-04-01T02:01:29;98611.19;;;10.85;100.00
11114;BME280;5610;52.154;9.198;2023-04-01T02:04:22;98601.16;;;10.79;100.00
11114;BME280;5610;52.154;9.198;2023-04-01T02:07:11;98601.38;;;10.85;100.00
11114;BME280;5610;52.154;9.198;2023-04-01T02:09:59;98605.47;;;10.80;100.00
11114;BME280;5610;52.154;9.198;2023-04-01T02:12:46;98606.28;;;10.90;100.00
11114;BME280;5610;52.154;9.198;2023-04-01T02:15:37;98606.56;;;10.87;100.00
11114;BME280;5610;52.154;9.198;2023-04-01T02:18:25;98608.25;;;10.78;100.00
11114;BME280;5610;52.154;9.198;2023-04-01T02:21:11;98604.66;;;10.79;100.00
11114;BME280;5610;52.154;9.198;2023-04-01T02:23:58;98601.00;;;10.70;100.00
11114;BME280;5610;52.154;9.198;2023-04-01T02:26:47;98596.38;;;10.72;100.00
11114;BME280;5610;52.154;9.198;2023-04-01T02:29:32;98604.38;;;10.63;100.00
11114;BME280;5610;52.154;9.198;2023-04-01T02:32:19;98601.41;;;10.76;100.00
11114;BME280;5610;52.154;9.198;2023-04-01T02:35:07;98600.16;;;10.70;100.00
11114;BME280;5610;52.154;9.198;2023-04-01T02:37:54;98596.25;;;10.74;100.00
11114;BME280;5610;52.154;9.198;2023-04-01T02:40:42;98595.41;;;10.64;100.00
11114;BME280;5610;52.154;9.198;2023-04-01T02:43:29;98598.06;;;10.73;100.00
11114;BME280;5610;52.154;9.198;2023-04-01T02:46:14;98601.16;;;10.69;100.00
11114;BME280;5610;52.154;9.198;2023-04-01T02:48:59;98606.78;;;10.56;100.00
11114;BME280;5610;52.154;9.198;2023-04-01T02:51:44;98605.41;;;10.52;100.00
11114;BME280;5610;52.154;9.198;2023-04-01T02:54:30;98598.41;;;10.51;100.00
11114;BME280;5610;52.154;9.198;2023-04-01T02:57:15;98613.09;;;10.55;100.00
11114;BME280;5610;52.154;9.198;2023-04-01T03:00:02;98608.34;;;10.49;100.00
11114;BME280;5610;52.154;9.198;2023-04-01T03:02:47;98616.19;;;10.60;100.00
11114;BME280;5610;52.154;9.198;2023-04-01T03:05:32;98612.72;;;10.50;100.00
11114;BME280;5610;52.154;9.198;2023-04-01T03:08:18;98616.19;;;10.60;100.00
11114;BME280;5610;52.154;9.198;2023-04-01T03:11:04;98614.38;;;10.51;100.00
11114;BME280;5610;52.154;9.198;2023-04-01T03:13:52;98618.88;;;10.51;100.00
11114;BME280;5610;52.154;9.198;2023-04-01T03:16:38;98609.22;;;10.40;100.00
11114;BME280;5610;52.154;9.198;2023-04-01T03:19:24;98612.41;;;10.53;100.00
11114;BME280;5610;52.154;9.198;2023-04-01T03:22:09;98613.97;;;10.46;100.00
11114;BME280;5610;52.154;9.198;2023-04-01T03:24:55;98613.94;;;10.56;100.00
11114;BME280;5610;52.154;9.198;2023-04-01T03:27:42;98609.88;;;10.61;100.00
11114;BME280;5610;52.154;9.198;2023-04-01T03:30:29;98612.09;;;10.66;100.00
11114;BME280;5610;52.154;9.198;2023-04-01T03:33:16;98613.06;;;10.75;100.00
11114;BME280;5610;52.154;9.198;2023-04-01T03:36:01;98614.72;;;10.76;100.00
11114;BME280;5610;52.154;9.198;2023-04-01T03:38:50;98615.56;;;10.76;100.00
11114;BME280;5610;52.154;9.198;2023-04-01T03:41:41;98606.88;;;10.74;100.00
11114;BME280;5610;52.154;9.198;2023-04-01T03:44:30;98616.97;;;10.80;100.00
11114;BME280;5610;52.154;9.198;2023-04-01T03:47:16;98616.41;;;10.86;100.00
11114;BME280;5610;52.154;9.198;2023-04-01T03:50:03;98615.69;;;10.84;100.00
11114;BME280;5610;52.154;9.198;2023-04-01T03:52:48;98620.63;;;10.79;100.00
11114;BME280;5610;52.154;9.198;2023-04-01T03:55:35;98621.72;;;10.86;100.00
11114;BME280;5610;52.154;9.198;2023-04-01T03:58:20;98617.81;;;10.81;100.00
11114;BME280;5610;52.154;9.198;2023-04-01T04:01:14;98623.88;;;10.73;100.00
11114;BME280;5610;52.154;9.198;2023-04-01T04:03:59;98616.13;;;10.80;100.00
11114;BME280;5610;52.154;9.198;2023-04-01T04:06:46;98619.38;;;10.73;100.00
11114;BME280;5610;52.154;9.198;2023-04-01T04:09:33;98621.47;;;10.70;100.00
11114;BME280;5610;52.154;9.198;2023-04-01T04:12:18;98622.19;;;10.72;100.00
11114;BME280;5610;52.154;9.198;2023-04-01T04:15:04;98625.13;;;10.79;100.00
11114;BME280;5610;52.154;9.198;2023-04-01T04:17:49;98632.69;;;10.73;100.00
11114;BME280;5610;52.154;9.198;2023-04-01T04:20:35;98626.22;;;10.76;100.00
11114;BME280;5610;52.154;9.198;2023-04-01T04:23:22;98634.53;;;10.63;100.00
11114;BME280;5610;52.154;9.198;2023-04-01T04:26:09;98633.78;;;10.71;100.00
11114;BME280;5610;52.154;9.198;2023-04-01T04:28:56;98628.34;;;10.63;100.00
11114;BME280;5610;52.154;9.198;2023-04-01T04:31:43;98632.84;;;10.72;100.00
11114;BME280;5610;52.154;9.198;2023-04-01T04:34:28;98640.25;;;10.68;100.00
11114;BME280;5610;52.154;9.198;2023-04-01T04:37:13;98629.75;;;10.67;100.00
11114;BME280;5610;52.154;9.198;2023-04-01T04:40:00;98637.72;;;10.77;100.00
11114;BME280;5610;52.154;9.198;2023-04-01T04:42:45;98635.88;;;10.77;100.00
11114;BME280;5610;52.154;9.198;2023-04-01T04:45:33;98644.34;;;10.72;100.00
11114;BME280;5610;52.154;9.198;2023-04-01T04:48:19;98637.72;;;10.77;100.00
11114;BME280;5610;52.154;9.198;2023-04-01T04:51:04;98636.88;;;10.86;100.00
11114;BME280;5610;52.154;9.198;2023-04-01T04:53:50;98643.31;;;10.83;100.00
11114;BME280;5610;52.154;9.198;2023-04-01T04:56:38;98639.38;;;10.78;100.00
11114;BME280;5610;52.154;9.198;2023-04-01T04:59:25;98643.59;;;10.80;100.00
11114;BME280;5610;52.154;9.198;2023-04-01T05:02:19;98645.44;;;10.80;100.00
11114;BME280;5610;52.154;9.198;2023-04-01T05:05:05;98651.16;;;10.85;100.00
11114;BME280;5610;52.154;9.198;2023-04-01T05:07:51;98650.47;;;10.83;100.00
11114;BME280;5610;52.154;9.198;2023-04-01T05:10:37;98656.78;;;10.82;100.00
11114;BME280;5610;52.154;9.198;2023-04-01T05:13:23;98658.19;;;10.86;100.00
11114;BME280;5610;52.154;9.198;2023-04-01T05:16:10;98652.97;;;10.84;100.00
11114;BME280;5610;52.154;9.198;2023-04-01T05:18:55;98656.63;;;10.93;100.00
11114;BME280;5610;52.154;9.198;2023-04-01T05:21:40;98658.44;;;10.92;100.00
11114;BME280;5610;52.154;9.198;2023-04-01T05:24:26;98659.66;;;10.98;100.00
11114;BME280;5610;52.154;9.198;2023-04-01T05:27:11;98662.22;;;10.99;100.00
11114;BME280;5610;52.154;9.198;2023-04-01T05:30:00;98654.75;;;11.03;100.00
11114;BME280;5610;52.154;9.198;2023-04-01T05:33:06;98665.97;;;11.07;100.00
11114;BME280;5610;52.154;9.198;2023-04-01T05:35:53;98663.69;;;11.12;100.00
11114;BME280;5610;52.154;9.198;2023-04-01T05:38:38;98669.16;;;11.10;100.00
11114;BME280;5610;52.154;9.198;2023-04-01T05:41:26;98672.94;;;11.17;100.00
11114;BME280;5610;52.154;9.198;2023-04-01T05:44:12;98664.50;;;11.22;100.00
11114;BME280;5610;52.154;9.198;2023-04-01T05:46:59;98667.53;;;11.27;100.00
11114;BME280;5610;52.154;9.198;2023-04-01T05:49:44;98667.03;;;11.23;100.00
11114;BME280;5610;52.154;9.198;2023-04-01T05:52:29;98658.97;;;11.33;100.00
11114;BME280;5610;52.154;9.198;2023-04-01T05:55:15;98672.00;;;11.36;100.00
11114;BME280;5610;52.154;9.198;2023-04-01T05:58:00;98662.44;;;11.43;100.00
11114;BME280;5610;52.154;9.198;2023-04-01T06:00:46;98672.81;;;11.46;100.00
11114;BME280;5610;52.154;9.198;2023-04-01T06:03:35;98671.47;;;11.33;100.00
11114;BME280;5610;52.154;9.198;2023-04-01T06:06:24;98664.44;;;11.32;100.00
11114;BME280;5610;52.154;9.198;2023-04-01T06:09:15;98673.44;;;11.58;100.00
11114;BME280;5610;52.154;9.198;2023-04-01T06:12:25;98674.94;;;11.70;100.00
11114;BME280;5610;52.154;9.198;2023-04-01T06:15:25;98682.22;;;11.96;100.00
11114;BME280;5610;52.154;9.198;2023-04-01T06:18:36;98680.88;;;12.09;100.00
11114;BME280;5610;52.154;9.198;2023-04-01T06:21:37;98675.59;;;12.18;100.00
11114;BME280;5610;52.154;9.198;2023-04-01T06:24:37;98684.56;;;12.26;100.00
11114;BME280;5610;52.154;9.198;2023-04-01T06:27:40;98684.97;;;12.40;100.00
11114;BME280;5610;52.154;9.198;2023-04-01T06:30:37;98679.69;;;12.65;100.00
11114;BME280;5610;52.154;9.198;2023-04-01T06:33:39;98686.91;;;12.91;100.00
11114;BME280;5610;52.154;9.198;2023-04-01T06:36:43;98690.78;;;13.23;100.00
11114;BME280;5610;52.154;9.198;2023-04-01T06:39:46;98696.09;;;13.49;100.00
11114;BME280;5610;52.154;9.198;2023-04-01T06:42:45;98695.38;;;13.38;100.00
11114;BME280;5610;52.154;9.198;2023-04-01T06:46:06;98697.97;;;13.22;100.00
11114;BME280;5610;52.154;9.198;2023-04-01T06:49:28;98697.13;;;13.56;100.00
11114;BME280;5610;52.154;9.198;2023-04-01T06:52:49;98694.50;;;13.64;100.00
11114;BME280;5610;52.154;9.198;2023-04-01T06:56:02;98701.19;;;13.26;100.00
11114;BME280;5610;52.154;9.198;2023-04-01T06:59:03;98700.69;;;13.30;100.00
11114;BME280;5610;52.154;9.198;2023-04-01T07:01:52;98705.13;;;12.96;100.00
11114;BME280;5610;52.154;9.198;2023-04-01T07:04:42;98706.38;;;12.83;100.00
11114;BME280;5610;52.154;9.198;2023-04-01T07:07:34;98717.25;;;12.64;100.00
11114;BME280;5610;52.154;9.198;2023-04-01T07:10:39;98714.00;;;12.34;100.00
11114;BME280;5610;52.154;9.198;2023-04-01T07:13:49;98713.22;;;12.24;100.00
11114;BME280;5610;52.154;9.198;2023-04-01T07:16:41;98720.59;;;11.95;100.00
11114;BME280;5610;52.154;9.198;2023-04-01T07:19:32;98721.25;;;11.69;100.00
11114;BME280;5610;52.154;9.198;2023-04-01T07:22:29;98733.63;;;11.70;100.00
11114;BME280;5610;52.154;9.198;2023-04-01T07:25:38;98726.59;;;11.97;100.00
11114;BME280;5610;52.154;9.198;2023-04-01T07:28:46;98724.81;;;12.15;100.00
11114;BME280;5610;52.154;9.198;2023-04-01T07:32:14;98728.88;;;12.19;100.00
11114;BME280;5610;52.154;9.198;2023-04-01T07:35:09;98732.81;;;12.51;100.00
11114;BME280;5610;52.154;9.198;2023-04-01T07:38:08;98732.28;;;12.47;100.00
11114;BME280;5610;52.154;9.198;2023-04-01T07:41:03;98729.78;;;12.46;100.00
11114;BME280;5610;52.154;9.198;2023-04-01T07:44:05;98738.63;;;12.46;100.00
11114;BME280;5610;52.154;9.198;2023-04-01T07:47:09;98749.31;;;12.64;100.00
11114;BME280;5610;52.154;9.198;2023-04-01T07:50:08;98745.03;;;12.71;100.00
11114;BME280;5610;52.154;9.198;2023-04-01T07:53:06;98748.25;;;13.01;100.00
11114;BME280;5610;52.154;9.198;2023-04-01T07:56:01;98761.78;;;12.99;100.00
11114;BME280;5610;52.154;9.198;2023-04-01T07:58:57;98764.75;;;12.70;100.00
11114;BME280;5610;52.154;9.198;2023-04-01T08:02:18;98761.91;;;12.72;100.00
11114;BME280;5610;52.154;9.198;2023-04-01T08:05:16;98769.38;;;12.86;100.00
11114;BME280;5610;52.154;9.198;2023-04-01T08:08:11;98772.53;;;13.07;100.00
11114;BME280;5610;52.154;9.198;2023-04-01T08:11:42;98770.75;;;13.16;100.00
11114;BME280;5610;52.154;9.198;2023-04-01T08:14:56;98775.41;;;13.32;100.00
11114;BME280;5610;52.154;9.198;2023-04-01T08:18:19;98771.25;;;13.11;100.00
11114;BME280;5610;52.154;9.198;2023-04-01T08:21:13;98782.75;;;13.30;100.00
11114;BME280;5610;52.154;9.198;2023-04-01T08:24:06;98784.91;;;13.26;100.00
11114;BME280;5610;52.154;9.198;2023-04-01T08:26:59;98787.66;;;13.34;100.00
11114;BME280;5610;52.154;9.198;2023-04-01T08:29:51;98786.53;;;13.45;100.00
11114;BME280;5610;52.154;9.198;2023-04-01T08:32:42;98791.25;;;13.51;100.00
11114;BME280;5610;52.154;9.198;2023-04-01T08:35:33;98797.47;;;13.60;100.00
11114;BME280;5610;52.154;9.198;2023-04-01T08:38:23;98798.84;;;13.64;100.00
11114;BME280;5610;52.154;9.198;2023-04-01T08:41:51;98797.56;;;13.68;100.00
11114;BME280;5610;52.154;9.198;2023-04-01T08:45:20;98795.13;;;13.83;100.00
11114;BME280;5610;52.154;9.198;2023-04-01T08:48:34;98799.13;;;13.87;100.00
11114;BME280;5610;52.154;9.198;2023-04-01T08:52:00;98796.66;;;13.93;100.00
11114;BME280;5610;52.154;9.198;2023-04-01T08:55:10;98803.03;;;14.00;100.00
11114;BME280;5610;52.154;9.198;2023-04-01T08:58:35;98811.00;;;13.84;100.00
11114;BME280;5610;52.154;9.198;2023-04-01T09:01:53;98806.41;;;14.02;100.00
11114;BME280;5610;52.154;9.198;2023-04-01T09:08:43;98813.34;;;13.87;100.00
11114;BME280;5610;52.154;9.198;2023-04-01T09:11:45;98816.09;;;13.95;100.00
11114;BME280;5610;52.154;9.198;2023-04-01T09:15:06;98816.44;;;14.00;100.00
11114;BME280;5610;52.154;9.198;2023-04-01T09:18:12;98819.06;;;13.92;100.00
11114;BME280;5610;52.154;9.198;2023-04-01T09:21:11;98820.75;;;13.93;100.00
11114;BME280;5610;52.154;9.198;2023-04-01T09:24:26;98818.06;;;14.36;100.00
11114;BME280;5610;52.154;9.198;2023-04-01T09:27:26;98824.25;;;14.36;100.00
11114;BME280;5610;52.154;9.198;2023-04-01T09:30:39;98823.13;;;14.39;100.00
11114;BME280;5610;52.154;9.198;2023-04-01T09:37:19;98835.75;;;14.54;100.00
11114;BME280;5610;52.154;9.198;2023-04-01T09:40:14;98834.72;;;14.47;100.00
11114;BME280;5610;52.154;9.198;2023-04-01T09:43:25;98845.19;;;13.90;100.00
11114;BME280;5610;52.154;9.198;2023-04-01T09:46:23;98849.72;;;13.98;100.00
11114;BME280;5610;52.154;9.198;2023-04-01T09:52:33;98854.09;;;13.73;100.00
11114;BME280;5610;52.154;9.198;2023-04-01T09:56:03;98858.94;;;13.69;100.00
11114;BME280;5610;52.154;9.198;2023-04-01T09:59:24;98858.56;;;13.64;100.00
11114;BME280;5610;52.154;9.198;2023-04-01T10:02:54;98863.22;;;13.88;100.00
11114;BME280;5610;52.154;9.198;2023-04-01T10:06:05;98856.28;;;14.04;100.00
11114;BME280;5610;52.154;9.198;2023-04-01T10:09:23;98862.59;;;14.37;100.00
11114;BME280;5610;52.154;9.198;2023-04-01T10:15:48;98864.56;;;14.52;100.00
11114;BME280;5610;52.154;9.198;2023-04-01T10:18:56;98867.16;;;14.95;100.00
11114;BME280;5610;52.154;9.198;2023-04-01T10:22:08;98870.50;;;14.97;100.00
11114;BME280;5610;52.154;9.198;2023-04-01T10:25:11;98867.19;;;15.27;100.00
11114;BME280;5610;52.154;9.198;2023-04-01T10:28:36;98883.97;;;15.29;100.00
11114;BME280;5610;52.154;9.198;2023-04-01T10:38:56;98876.41;;;15.17;100.00
11114;BME280;5610;52.154;9.198;2023-04-01T10:42:22;98879.75;;;14.94;100.00
11114;BME280;5610;52.154;9.198;2023-04-01T10:45:57;98884.69;;;14.73;100.00
11114;BME280;5610;52.154;9.198;2023-04-01T10:52:47;98890.56;;;14.34;100.00
11114;BME280;5610;52.154;9.198;2023-04-01T10:56:32;98887.84;;;14.18;100.00
11114;BME280;5610;52.154;9.198;2023-04-01T11:00:27;98886.66;;;14.20;100.00
11114;BME280;5610;52.154;9.198;2023-04-01T11:04:04;98884.09;;;14.45;100.00
11114;BME280;5610;52.154;9.198;2023-04-01T11:07:42;98881.34;;;14.71;100.00
11114;BME280;5610;52.154;9.198;2023-04-01T11:14:35;98885.59;;;14.90;100.00
11114;BME280;5610;52.154;9.198;2023-04-01T11:17:42;98889.13;;;14.98;100.00
11114;BME280;5610;52.154;9.198;2023-04-01T11:21:01;98896.16;;;14.91;100.00
11114;BME280;5610;52.154;9.198;2023-04-01T11:24:06;98898.81;;;14.91;100.00
11114;BME280;5610;52.154;9.198;2023-04-01T11:27:16;98897.13;;;14.82;100.00
11114;BME280;5610;52.154;9.198;2023-04-01T11:30:21;98900.63;;;14.66;100.00
11114;BME280;5610;52.154;9.198;2023-04-01T11:33:15;98899.31;;;14.44;100.00
11114;BME280;5610;52.154;9.198;2023-04-01T11:36:09;98905.41;;;14.46;100.00
11114;BME280;5610;52.154;9.198;2023-04-01T11:39:16;98911.72;;;14.45;100.00
11114;BME280;5610;52.154;9.198;2023-04-01T11:42:26;98909.19;;;14.44;100.00
11114;BME280;5610;52.154;9.198;2023-04-01T11:45:38;98907.28;;;14.28;100.00
11114;BME280;5610;52.154;9.198;2023-04-01T11:48:52;98914.03;;;14.06;100.00
11114;BME280;5610;52.154;9.198;2023-04-01T11:51:51;98924.44;;;13.83;100.00
11114;BME280;5610;52.154;9.198;2023-04-01T11:55:02;98918.38;;;13.55;100.00
11114;BME280;5610;52.154;9.198;2023-04-01T11:58:11;98927.53;;;13.53;100.00
11114;BME280;5610;52.154;9.198;2023-04-01T12:08:04;98930.69;;;13.48;100.00
11114;BME280;5610;52.154;9.198;2023-04-01T12:10:57;98935.56;;;13.53;100.00
11114;BME280;5610;52.154;9.198;2023-04-01T12:13:49;98940.69;;;13.64;100.00
11114;BME280;5610;52.154;9.198;2023-04-01T12:16:54;98942.47;;;13.37;100.00
11114;BME280;5610;52.154;9.198;2023-04-01T12:19:46;98948.06;;;13.26;100.00
11114;BME280;5610;52.154;9.198;2023-04-01T12:22:42;98949.63;;;13.19;100.00
11114;BME280;5610;52.154;9.198;2023-04-01T12:25:43;98964.25;;;13.25;100.00
11114;BME280;5610;52.154;9.198;2023-04-01T12:28:43;98954.19;;;13.09;100.00
11114;BME280;5610;52.154;9.198;2023-04-01T12:31:39;98966.31;;;12.85;100.00
11114;BME280;5610;52.154;9.198;2023-04-01T12:34:50;98965.00;;;12.89;100.00
11114;BME280;5610;52.154;9.198;2023-04-01T12:37:48;98967.06;;;12.78;100.00
11114;BME280;5610;52.154;9.198;2023-04-01T12:40:45;98970.66;;;12.59;100.00
11114;BME280;5610;52.154;9.198;2023-04-01T12:44:04;98974.91;;;12.52;100.00
11114;BME280;5610;52.154;9.198;2023-04-01T12:47:11;98972.41;;;12.78;100.00
11114;BME280;5610;52.154;9.198;2023-04-01T12:50:16;98981.94;;;13.08;100.00
11114;BME280;5610;52.154;9.198;2023-04-01T12:53:17;98983.38;;;13.02;100.00
11114;BME280;5610;52.154;9.198;2023-04-01T12:56:14;98989.63;;;12.93;100.00
11114;BME280;5610;52.154;9.198;2023-04-01T12:59:19;98987.63;;;12.68;100.00
11114;BME280;5610;52.154;9.198;2023-04-01T13:02:12;98995.13;;;12.64;100.00
11114;BME280;5610;52.154;9.198;2023-04-01T13:05:23;98996.16;;;12.81;100.00
11114;BME280;5610;52.154;9.198;2023-04-01T13:08:27;98991.25;;;13.04;100.00
11114;BME280;5610;52.154;9.198;2023-04-01T13:11:20;98995.47;;;13.06;100.00
11114;BME280;5610;52.154;9.198;2023-04-01T13:14:24;99004.22;;;12.99;100.00
11114;BME280;5610;52.154;9.198;2023-04-01T13:17:20;99010.75;;;12.86;100.00
11114;BME280;5610;52.154;9.198;2023-04-01T13:20:14;99007.00;;;13.07;100.00
11114;BME280;5610;52.154;9.198;2023-04-01T13:23:12;99010.03;;;13.22;100.00
11114;BME280;5610;52.154;9.198;2023-04-01T13:26:09;99007.50;;;13.38;100.00
11114;BME280;5610;52.154;9.198;2023-04-01T13:29:04;99015.84;;;13.53;100.00
11114;BME280;5610;52.154;9.198;2023-04-01T13:31:58;99017.31;;;13.65;100.00
11114;BME280;5610;52.154;9.198;2023-04-01T13:34:55;99021.81;;;13.82;100.00
11114;BME280;5610;52.154;9.198;2023-04-01T13:38:08;99022.16;;;14.05;100.00
11114;BME280;5610;52.154;9.198;2023-04-01T13:41:01;99025.06;;;13.94;100.00
11114;BME280;5610;52.154;9.198;2023-04-01T13:43:58;99029.25;;;14.14;100.00
11114;BME280;5610;52.154;9.198;2023-04-01T13:50:32;99035.06;;;14.53;100.00
11114;BME280;5610;52.154;9.198;2023-04-01T13:53:39;99042.56;;;14.50;100.00
11114;BME280;5610;52.154;9.198;2023-04-01T13:56:34;99039.94;;;14.58;100.00
11114;BME280;5610;52.154;9.198;2023-04-01T13:59:39;99052.44;;;14.75;100.00
11114;BME280;5610;52.154;9.198;2023-04-01T14:02:47;99050.81;;;14.82;100.00
11114;BME280;5610;52.154;9.198;2023-04-01T14:05:51;99054.16;;;14.84;100.00
11114;BME280;5610;52.154;9.198;2023-04-01T14:08:53;99061.19;;;14.86;100.00
11114;BME280;5610;52.154;9.198;2023-04-01T14:11:50;99057.72;;;14.93;100.00
11114;BME280;5610;52.154;9.198;2023-04-01T14:14:49;99066.09;;;14.90;100.00
11114;BME280;5610;52.154;9.198;2023-04-01T14:17:46;99070.63;;;14.90;100.00
11114;BME280;5610;52.154;9.198;2023-04-01T14:20:39;99073.22;;;14.73;100.00
11114;BME280;5610;52.154;9.198;2023-04-01T14:26:59;99082.31;;;14.80;100.00
11114;BME280;5610;52.154;9.198;2023-04-01T14:30:00;99080.97;;;14.59;100.00
11114;BME280;5610;52.154;9.198;2023-04-01T14:32:57;99081.97;;;14.57;100.00
11114;BME280;5610;52.154;9.198;2023-04-01T14:35:53;99088.06;;;14.60;100.00
11114;BME280;5610;52.154;9.198;2023-04-01T14:38:54;99099.44;;;14.62;100.00
11114;BME280;5610;52.154;9.198;2023-04-01T14:41:47;99091.13;;;14.73;100.00
11114;BME280;5610;52.154;9.198;2023-04-01T14:44:52;99096.75;;;14.88;100.00
11114;BME280;5610;52.154;9.198;2023-04-01T14:47:47;99104.25;;;15.10;100.00
11114;BME280;5610;52.154;9.198;2023-04-01T14:50:41;99108.25;;;15.14;100.00
11114;BME280;5610;52.154;9.198;2023-04-01T14:53:33;99111.44;;;15.09;100.00
11114;BME280;5610;52.154;9.198;2023-04-01T14:56:39;99119.50;;;15.09;100.00
11114;BME280;5610;52.154;9.198;2023-04-01T14:59:27;99113.16;;;15.19;100.00
11114;BME280;5610;52.154;9.198;2023-04-01T15:02:32;99117.41;;;15.29;100.00
11114;BME280;5610;52.154;9.198;2023-04-01T15:05:28;99126.19;;;15.48;100.00
11114;BME280;5610;52.154;9.198;2023-04-01T15:08:20;99128.38;;;15.52;100.00
11114;BME280;5610;52.154;9.198;2023-04-01T15:11:18;99130.06;;;15.53;100.00
11114;BME280;5610;52.154;9.198;2023-04-01T15:14:22;99137.06;;;15.38;100.00
11114;BME280;5610;52.154;9.198;2023-04-01T15:17:29;99136.31;;;14.94;100.00
11114;BME280;5610;52.154;9.198;2023-04-01T15:20:40;99144.78;;;14.55;100.00
11114;BME280;5610;52.154;9.198;2023-04-01T15:23:40;99150.84;;;14.57;100.00
11114;BME280;5610;52.154;9.198;2023-04-01T15:26:45;99156.69;;;14.17;100.00
11114;BME280;5610;52.154;9.198;2023-04-01T15:29:43;99158.50;;;13.98;100.00
11114;BME280;5610;52.154;9.198;2023-04-01T15:32:45;99161.25;;;14.07;100.00
11114;BME280;5610;52.154;9.198;2023-04-01T15:35:41;99168.75;;;13.85;100.00
11114;BME280;5610;52.154;9.198;2023-04-01T15:38:34;99183.88;;;13.94;100.00
11114;BME280;5610;52.154;9.198;2023-04-01T15:41:24;99179.59;;;14.01;100.00
11114;BME280;5610;52.154;9.198;2023-04-01T15:44:42;99189.25;;;13.94;100.00
11114;BME280;5610;52.154;9.198;2023-04-01T15:47:34;99197.84;;;13.70;100.00
11114;BME280;5610;52.154;9.198;2023-04-01T15:50:58;99206.88;;;13.69;100.00
11114;BME280;5610;52.154;9.198;2023-04-01T15:54:00;99208.72;;;13.41;100.00
11114;BME280;5610;52.154;9.198;2023-04-01T15:56:59;99213.13;;;13.33;100.00
11114;BME280;5610;52.154;9.198;2023-04-01T15:59:55;99229.72;;;13.17;100.00
11114;BME280;5610;52.154;9.198;2023-04-01T16:02:47;99230.44;;;13.09;100.00
11114;BME280;5610;52.154;9.198;2023-04-01T16:05:40;99233.31;;;12.98;100.00
11114;BME280;5610;52.154;9.198;2023-04-01T16:11:52;99245.31;;;12.36;100.00
11114;BME280;5610;52.154;9.198;2023-04-01T16:14:52;99255.28;;;12.24;100.00
11114;BME280;5610;52.154;9.198;2023-04-01T16:17:54;99264.13;;;12.05;100.00
11114;BME280;5610;52.154;9.198;2023-04-01T16:20:51;99266.03;;;11.94;100.00
11114;BME280;5610;52.154;9.198;2023-04-01T16:23:43;99272.56;;;11.80;100.00
11114;BME280;5610;52.154;9.198;2023-04-01T16:26:37;99274.72;;;11.55;100.00
11114;BME280;5610;52.154;9.198;2023-04-01T16:29:32;99282.78;;;11.35;100.00